Campo Largo, Brazil
Current Conditions -  °F | °C
As of 3:00 PM on Saturday 25 Oct 2014 (Local Time) from SBBI Reporting Station
Broken Clouds Broken Clouds  
Wind Chill: 75°   Ceiling: 10000
Heat Index: 75°   Visibility: 6mi
Dew Point: 63°   Wind: 5mph
Humidity: 65%   Direction: 330°NNW
Pressure: 30.03"   Gusts: NA
Location:  25.44°S, 49.54°W
Report Text: SBBI 251700Z 33004KT 9999 SCT030 BKN100 24/17 Q1017
Loading
Personal Weather Stations






























Interactive Weather Map
Tropical Storm Tracking
New forecast layout! Learn more

10-Day Weather Forecast

Advertisements
Track Severe Weather on mobile